createdAt,value
2022-09-24T00:01:22.525Z,1.80
2022-09-24T00:03:52.167Z,1.87
2022-09-24T00:06:19.833Z,2.13
2022-09-24T00:08:47.869Z,2.63
2022-09-24T00:11:15.600Z,1.80
2022-09-24T00:13:42.969Z,2.10
2022-09-24T00:16:12.170Z,2.20
2022-09-24T00:18:40.324Z,1.93
2022-09-24T00:21:15.857Z,1.67
2022-09-24T00:23:43.185Z,1.90
2022-09-24T00:26:29.300Z,2.10
2022-09-24T00:28:56.666Z,2.00
2022-09-24T00:31:24.204Z,2.10
2022-09-24T00:33:52.155Z,2.00
2022-09-24T00:36:21.279Z,1.97
2022-09-24T00:38:50.060Z,1.83
2022-09-24T00:41:17.622Z,2.00
2022-09-24T00:43:44.946Z,1.80
2022-09-24T00:46:15.486Z,2.10
2022-09-24T00:48:43.378Z,1.70
2022-09-24T00:51:14.029Z,2.03
2022-09-24T00:53:44.003Z,1.67
2022-09-24T00:56:15.516Z,1.93
2022-09-24T00:58:43.928Z,1.90
2022-09-24T01:01:11.646Z,2.10
2022-09-24T01:03:41.139Z,1.77
2022-09-24T01:06:09.230Z,1.97
2022-09-24T01:08:36.592Z,2.10
2022-09-24T01:11:18.100Z,2.07
2022-09-24T01:13:56.198Z,1.80
2022-09-24T01:16:29.113Z,2.00
2022-09-24T01:19:04.373Z,2.20
2022-09-24T01:21:36.083Z,2.23
2022-09-24T01:24:12.535Z,2.10
2022-09-24T01:26:48.934Z,2.07
2022-09-24T01:29:25.370Z,2.00
2022-09-24T01:31:54.871Z,2.33
2022-09-24T01:34:26.882Z,2.13
2022-09-24T01:36:54.686Z,2.10
2022-09-24T01:39:22.786Z,2.40
2022-09-24T01:41:50.185Z,2.37
2022-09-24T01:44:18.377Z,2.20
2022-09-24T01:46:47.153Z,2.47
2022-09-24T01:49:14.637Z,2.53
2022-09-24T01:51:44.385Z,2.40
2022-09-24T01:54:16.053Z,2.20
2022-09-24T01:56:46.705Z,2.13
2022-09-24T01:59:16.041Z,2.33
2022-09-24T02:01:46.211Z,2.37
2022-09-24T02:04:17.482Z,2.67
2022-09-24T02:06:47.492Z,2.67
2022-09-24T02:09:32.551Z,2.60
2022-09-24T02:12:02.750Z,2.50
2022-09-24T02:14:33.130Z,2.23
2022-09-24T02:17:01.638Z,2.40
2022-09-24T02:19:30.974Z,2.30
2022-09-24T02:21:58.966Z,2.20
2022-09-24T02:24:31.328Z,2.20
2022-09-24T02:26:58.697Z,2.40
2022-09-24T02:29:26.342Z,2.60
2022-09-24T02:31:56.013Z,2.60
2022-09-24T02:34:25.502Z,2.50
2022-09-24T02:36:55.773Z,2.73
2022-09-24T02:39:23.577Z,2.87
2022-09-24T02:42:07.156Z,2.67
2022-09-24T02:44:53.442Z,3.00
2022-09-24T02:47:28.966Z,3.00
2022-09-24T02:50:20.611Z,2.60
2022-09-24T02:53:16.064Z,2.63
2022-09-24T02:56:04.839Z,2.23
2022-09-24T02:58:38.166Z,2.40
2022-09-24T03:01:14.704Z,2.97
2022-09-24T03:03:46.483Z,2.77
2022-09-24T03:06:22.204Z,3.07
2022-09-24T03:08:59.133Z,2.90
2022-09-24T03:11:44.600Z,2.73
2022-09-24T03:14:22.683Z,2.73
2022-09-24T03:17:02.863Z,2.80
2022-09-24T03:19:40.983Z,2.90
2022-09-24T03:22:18.356Z,2.77
2022-09-24T03:24:57.382Z,2.90
2022-09-24T03:27:45.710Z,2.23
2022-09-24T03:30:45.343Z,2.70
2022-09-24T03:33:25.597Z,2.30
2022-09-24T03:36:06.019Z,2.70
2022-09-24T03:38:54.374Z,2.73
2022-09-24T03:41:41.519Z,2.70
2022-09-24T03:44:31.835Z,2.60
2022-09-24T03:47:19.436Z,2.87
2022-09-24T03:49:51.091Z,3.10
2022-09-24T03:52:44.056Z,3.00
2022-09-24T03:55:15.491Z,2.87
2022-09-24T03:58:05.364Z,2.97
2022-09-24T04:00:40.846Z,3.33
2022-09-24T04:03:20.733Z,2.90
2022-09-24T04:05:58.591Z,2.73
2022-09-24T04:08:36.576Z,2.90
2022-09-24T04:11:48.064Z,2.43
2022-09-24T04:14:27.796Z,2.90
2022-09-24T04:17:02.295Z,3.03
2022-09-24T04:20:02.307Z,3.00
2022-09-24T04:23:03.064Z,3.07
2022-09-24T04:25:47.645Z,2.93
2022-09-24T04:31:37.413Z,3.20
2022-09-24T04:34:20.977Z,3.03
2022-09-24T04:37:14.024Z,2.97
2022-09-24T04:39:56.724Z,2.80
2022-09-24T04:42:41.601Z,3.20
2022-09-24T04:45:33.318Z,3.07
2022-09-24T04:48:41.035Z,2.87
2022-09-24T04:51:28.490Z,3.13
2022-09-24T04:54:09.527Z,3.43
2022-09-24T04:56:58.468Z,3.23
2022-09-24T04:59:40.675Z,3.17
2022-09-24T05:02:17.773Z,2.97
2022-09-24T05:08:10.231Z,3.03
2022-09-24T05:10:45.683Z,3.50
2022-09-24T05:13:25.715Z,3.13
2022-09-24T05:16:13.885Z,3.20
2022-09-24T05:18:55.751Z,3.10
2022-09-24T05:21:41.653Z,3.13
2022-09-24T05:24:19.439Z,3.40
2022-09-24T05:27:05.337Z,2.30
2022-09-24T05:29:34.434Z,2.70
2022-09-24T05:32:17.770Z,2.60
2022-09-24T05:35:00.051Z,2.47
2022-09-24T05:37:53.830Z,2.40
2022-09-24T05:40:42.263Z,2.27
2022-09-24T05:43:30.749Z,2.57
2022-09-24T05:46:09.241Z,2.43
2022-09-24T05:48:50.951Z,2.63
2022-09-24T05:51:50.663Z,2.63
2022-09-24T05:54:34.880Z,3.00
2022-09-24T05:57:07.718Z,3.33
2022-09-24T05:59:36.584Z,3.30
2022-09-24T06:02:16.347Z,3.23
2022-09-24T06:04:52.896Z,3.20
2022-09-24T06:07:23.193Z,3.10
2022-09-24T06:10:07.635Z,2.87
2022-09-24T06:15:38.829Z,2.97
2022-09-24T06:18:11.635Z,2.50
2022-09-24T06:20:46.454Z,2.70
2022-09-24T06:23:41.582Z,2.80
2022-09-24T06:26:16.505Z,2.97
2022-09-24T06:28:50.393Z,2.53
2022-09-24T06:31:52.972Z,2.77
2022-09-24T06:34:59.196Z,2.40
2022-09-24T06:37:39.318Z,3.00
2022-09-24T06:40:13.332Z,2.60
2022-09-24T06:43:02.353Z,2.60
2022-09-24T06:45:36.041Z,2.77
2022-09-24T06:48:12.331Z,2.30
2022-09-24T06:50:55.669Z,2.80
2022-09-24T06:53:33.453Z,2.50
2022-09-24T06:56:07.463Z,3.00
2022-09-24T06:58:49.152Z,3.10
2022-09-24T07:01:29.758Z,3.07
2022-09-24T07:04:20.009Z,2.60
2022-09-24T07:07:15.084Z,2.87
2022-09-24T07:09:53.740Z,2.80
2022-09-24T07:12:26.305Z,2.57
2022-09-24T07:14:58.450Z,2.80
2022-09-24T07:17:33.733Z,2.60
2022-09-24T07:20:03.910Z,2.40
2022-09-24T07:22:40.609Z,3.03
2022-09-24T07:25:13.671Z,2.90
2022-09-24T07:27:48.191Z,3.13
2022-09-24T07:30:27.734Z,3.30
2022-09-24T07:33:02.366Z,3.27
2022-09-24T07:35:39.257Z,4.07
2022-09-24T07:38:15.969Z,3.10
2022-09-24T07:40:52.227Z,2.47
2022-09-24T07:43:36.543Z,2.83
2022-09-24T07:46:11.926Z,2.13
2022-09-24T07:48:43.436Z,2.60
2022-09-24T07:51:20.370Z,2.80
2022-09-24T07:53:54.396Z,2.67
2022-09-24T07:56:26.986Z,3.20
2022-09-24T07:59:09.199Z,2.60
2022-09-24T08:01:41.946Z,2.57
2022-09-24T08:04:17.020Z,2.53
2022-09-24T08:06:51.851Z,3.13
2022-09-24T08:09:27.296Z,2.30
2022-09-24T08:11:58.843Z,2.53
2022-09-24T08:14:37.643Z,2.27
2022-09-24T08:17:19.863Z,2.30
2022-09-24T08:19:57.295Z,2.63
2022-09-24T08:22:26.880Z,2.63
2022-09-24T08:25:03.658Z,2.40
2022-09-24T08:27:40.211Z,2.47
2022-09-24T08:30:12.889Z,2.30
2022-09-24T08:33:02.336Z,2.50
2022-09-24T08:35:43.207Z,2.73
2022-09-24T08:38:28.671Z,1.87
2022-09-24T08:41:16.285Z,2.47
2022-09-24T08:44:10.091Z,2.33
2022-09-24T08:47:11.057Z,2.27
2022-09-24T08:50:12.512Z,2.27
2022-09-24T08:53:11.992Z,2.50
2022-09-24T08:56:15.197Z,2.47
2022-09-24T08:59:02.369Z,2.67
2022-09-24T09:01:50.395Z,2.20
2022-09-24T09:04:40.719Z,2.20
2022-09-24T09:07:33.540Z,2.30
2022-09-24T09:10:11.412Z,2.13
2022-09-24T09:12:44.198Z,2.33
2022-09-24T09:15:27.898Z,2.20
2022-09-24T09:18:03.716Z,2.37
2022-09-24T09:20:36.786Z,2.00
2022-09-24T09:23:30.202Z,2.20
2022-09-24T09:26:07.096Z,2.30
2022-09-24T09:28:56.192Z,1.90
2022-09-24T09:32:01.010Z,1.90
2022-09-24T09:34:50.733Z,1.90
2022-09-24T09:37:32.734Z,2.00
2022-09-24T09:40:32.239Z,1.87
2022-09-24T09:43:27.196Z,1.57
2022-09-24T09:46:32.493Z,1.70
2022-09-24T09:49:35.222Z,1.73
2022-09-24T09:52:10.974Z,1.70
2022-09-24T09:57:58.591Z,1.87
2022-09-24T10:00:42.974Z,1.60
2022-09-24T10:03:43.252Z,1.60
2022-09-24T10:06:42.012Z,1.60
2022-09-24T10:09:25.501Z,1.70
2022-09-24T10:12:07.794Z,1.77
2022-09-24T10:14:50.130Z,1.70
2022-09-24T10:18:15.037Z,1.47
2022-09-24T10:21:14.714Z,1.70
2022-09-24T10:23:49.065Z,1.90
2022-09-24T10:26:45.380Z,1.30
2022-09-24T10:29:45.182Z,1.77
2022-09-24T10:32:33.385Z,1.80
2022-09-24T10:35:30.615Z,1.80
2022-09-24T10:38:28.608Z,1.83
2022-09-24T10:44:52.735Z,1.97
2022-09-24T10:47:53.158Z,1.70
2022-09-24T10:50:43.472Z,1.90
2022-09-24T10:53:37.654Z,1.80
2022-09-24T10:56:42.180Z,1.80
2022-09-24T10:59:37.913Z,1.93
2022-09-24T11:02:49.117Z,1.60
2022-09-24T11:05:35.109Z,1.87
2022-09-24T11:08:25.548Z,2.37
2022-09-24T11:11:06.557Z,1.87
2022-09-24T11:13:51.475Z,2.20
2022-09-24T11:16:36.757Z,2.03
2022-09-24T11:19:19.946Z,2.00
2022-09-24T11:22:16.236Z,2.00
2022-09-24T11:25:08.785Z,1.93
2022-09-24T11:27:48.115Z,2.10
2022-09-24T11:30:20.121Z,2.53
2022-09-24T11:33:05.132Z,2.13
2022-09-24T11:36:05.118Z,1.90
2022-09-24T11:38:53.453Z,2.60
2022-09-24T11:41:37.296Z,2.70
2022-09-24T11:44:30.272Z,2.43
2022-09-24T11:47:22.381Z,2.70
2022-09-24T11:50:05.463Z,2.50
2022-09-24T11:52:49.304Z,2.77
2022-09-24T11:55:32.067Z,3.00
2022-09-24T11:58:11.721Z,2.13
2022-09-24T12:00:51.758Z,2.73
2022-09-24T12:04:08.886Z,2.60
2022-09-24T12:07:06.799Z,2.50
2022-09-24T12:12:47.434Z,2.63
2022-09-24T12:21:31.133Z,2.20
2022-09-24T12:24:44.383Z,2.10
2022-09-24T12:28:11.651Z,1.90
2022-09-24T12:31:28.021Z,2.13
2022-09-24T12:34:34.064Z,2.03
2022-09-24T12:37:33.662Z,2.20
2022-09-24T12:40:20.723Z,2.20
2022-09-24T12:43:16.143Z,2.00
2022-09-24T12:48:47.091Z,1.90
2022-09-24T12:52:01.832Z,1.60
2022-09-24T12:55:18.751Z,1.60
2022-09-24T12:58:07.089Z,1.60
2022-09-24T13:01:35.790Z,1.60
2022-09-24T13:05:03.171Z,1.63
2022-09-24T13:07:57.176Z,1.70
2022-09-24T13:10:49.896Z,1.73
2022-09-24T13:14:14.772Z,1.80
2022-09-24T13:17:09.837Z,1.30
2022-09-24T13:19:57.504Z,1.70
2022-09-24T13:26:11.181Z,1.70
2022-09-24T13:29:52.450Z,1.60
2022-09-24T13:33:59.975Z,1.57
2022-09-24T13:40:27.187Z,1.57
2022-09-24T13:43:19.162Z,1.77
2022-09-24T13:46:33.650Z,1.40
2022-09-24T13:49:36.404Z,1.63
2022-09-24T13:52:43.592Z,1.60
2022-09-24T13:55:23.446Z,1.87
2022-09-24T13:58:32.612Z,1.60
2022-09-24T14:01:13.322Z,1.87
2022-09-24T14:03:46.044Z,1.70
2022-09-24T14:09:55.101Z,1.70
2022-09-24T14:12:34.041Z,3.40
2022-09-24T14:15:06.369Z,1.80
2022-09-24T14:17:46.239Z,1.60
2022-09-24T14:20:24.675Z,1.90
2022-09-24T14:23:14.226Z,1.53
2022-09-24T14:25:57.167Z,1.70
2022-09-24T14:28:33.285Z,1.50
2022-09-24T14:31:11.952Z,1.30
2022-09-24T14:33:57.219Z,1.40
2022-09-24T14:36:39.057Z,2.50
2022-09-24T14:39:36.347Z,1.23
2022-09-24T14:42:39.829Z,1.50
2022-09-24T14:45:14.903Z,2.17
2022-09-24T14:47:57.401Z,5.10
2022-09-24T14:50:38.965Z,2.90
2022-09-24T14:53:28.819Z,2.37
2022-09-24T14:56:23.332Z,2.17
2022-09-24T14:58:59.885Z,1.97
2022-09-24T15:01:40.692Z,1.60
2022-09-24T15:04:29.529Z,1.67
2022-09-24T15:07:05.092Z,1.90
2022-09-24T15:09:54.019Z,1.67
2022-09-24T15:12:38.567Z,1.40
2022-09-24T15:15:29.033Z,1.60
2022-09-24T15:18:49.492Z,1.60
2022-09-24T15:21:18.710Z,1.90
2022-09-24T15:23:55.091Z,2.00
2022-09-24T15:26:32.541Z,1.40
2022-09-24T15:29:27.339Z,1.60
2022-09-24T15:35:30.390Z,1.43
2022-09-24T15:38:14.210Z,1.40
2022-09-24T15:40:56.750Z,1.50
2022-09-24T15:43:40.760Z,1.50
2022-09-24T15:46:17.148Z,1.70
2022-09-24T15:49:00.841Z,1.70
2022-09-24T15:51:31.375Z,1.60
2022-09-24T15:54:02.200Z,1.53
2022-09-24T15:56:48.240Z,1.60
2022-09-24T15:59:30.000Z,1.60
2022-09-24T16:02:15.219Z,1.97
2022-09-24T16:04:47.133Z,1.70
2022-09-24T16:07:36.032Z,1.87
2022-09-24T16:10:07.373Z,1.80
2022-09-24T16:12:42.510Z,2.00
2022-09-24T16:15:23.854Z,1.80
2022-09-24T16:17:56.635Z,1.53
2022-09-24T16:20:29.316Z,1.90
2022-09-24T16:23:18.377Z,2.20
2022-09-24T16:26:06.826Z,1.93
2022-09-24T16:28:38.686Z,1.90
2022-09-24T16:31:24.309Z,2.10
2022-09-24T16:34:05.537Z,1.93
2022-09-24T16:36:42.941Z,2.63
2022-09-24T16:39:22.845Z,3.20
2022-09-24T16:41:55.876Z,3.50
2022-09-24T16:44:32.357Z,4.50
2022-09-24T16:47:04.107Z,5.00
2022-09-24T16:49:44.046Z,7.43
2022-09-24T16:52:19.853Z,15.20
2022-09-24T16:54:56.322Z,13.97
2022-09-24T16:57:26.285Z,13.07
2022-09-24T16:59:59.200Z,8.73
2022-09-24T17:02:44.076Z,7.27
2022-09-24T17:05:21.339Z,6.80
2022-09-24T17:07:51.356Z,6.63
2022-09-24T17:10:26.691Z,6.30
2022-09-24T17:13:03.710Z,6.07
2022-09-24T17:15:35.824Z,6.93
2022-09-24T17:18:11.063Z,10.40
2022-09-24T17:20:40.608Z,3.00
2022-09-24T17:23:10.524Z,2.27
2022-09-24T17:25:38.394Z,2.10
2022-09-24T17:28:06.942Z,2.07
2022-09-24T17:30:34.402Z,2.43
2022-09-24T17:33:01.728Z,2.80
2022-09-24T17:35:30.620Z,2.70
2022-09-24T17:37:57.920Z,3.13
2022-09-24T17:40:26.769Z,2.67
2022-09-24T17:42:54.197Z,2.43
2022-09-24T17:45:22.120Z,3.33
2022-09-24T17:47:58.515Z,4.67
2022-09-24T17:50:25.858Z,4.07
2022-09-24T17:52:54.509Z,5.40
2022-09-24T17:55:21.849Z,5.13
2022-09-24T17:57:49.362Z,6.50
2022-09-24T18:00:16.749Z,6.80
2022-09-24T18:02:44.103Z,6.30
2022-09-24T18:05:11.690Z,6.77
2022-09-24T18:07:39.112Z,6.50
2022-09-24T18:10:08.419Z,6.57
2022-09-24T18:12:35.741Z,6.93
2022-09-24T18:15:03.080Z,6.33
2022-09-24T18:17:30.722Z,8.17
2022-09-24T18:19:58.103Z,9.70
2022-09-24T18:22:25.808Z,7.13
2022-09-24T18:24:53.149Z,7.10
2022-09-24T18:27:23.046Z,6.43
2022-09-24T18:29:52.214Z,6.40
2022-09-24T18:32:19.739Z,5.67
2022-09-24T18:34:47.094Z,6.87
2022-09-24T18:37:14.430Z,6.67
2022-09-24T18:39:41.792Z,5.90
2022-09-24T18:42:09.313Z,7.47
2022-09-24T18:44:38.085Z,7.30
2022-09-24T18:47:05.457Z,6.47
2022-09-24T18:49:32.800Z,6.70
2022-09-24T18:52:00.225Z,6.50
2022-09-24T18:54:27.757Z,7.47
2022-09-24T18:56:55.174Z,7.43
2022-09-24T18:59:23.043Z,7.80
2022-09-24T19:01:52.003Z,7.30
2022-09-24T19:04:19.527Z,7.40
2022-09-24T19:06:48.022Z,7.30
2022-09-24T19:09:17.259Z,6.23
2022-09-24T19:11:45.377Z,5.07
2022-09-24T19:14:14.881Z,5.70
2022-09-24T19:16:42.230Z,5.53
2022-09-24T19:19:12.097Z,6.10
2022-09-24T19:21:41.268Z,6.57
2022-09-24T19:24:09.771Z,7.37
2022-09-24T19:26:37.750Z,7.73
2022-09-24T19:29:05.176Z,8.93
2022-09-24T19:31:35.849Z,9.63
2022-09-24T19:34:04.309Z,10.43
2022-09-24T19:36:38.715Z,9.60
2022-09-24T19:39:09.714Z,9.17
2022-09-24T19:41:37.075Z,10.03
2022-09-24T19:44:08.906Z,9.53
2022-09-24T19:46:38.232Z,9.00
2022-09-24T19:49:06.047Z,9.27
2022-09-24T19:51:35.171Z,9.13
2022-09-24T19:54:03.483Z,8.57
2022-09-24T19:56:31.803Z,8.80
2022-09-24T19:59:00.513Z,7.60
2022-09-24T20:01:29.136Z,8.70
2022-09-24T20:03:57.013Z,8.73
2022-09-24T20:06:26.231Z,9.00
2022-09-24T20:08:55.246Z,7.63
2022-09-24T20:11:24.676Z,7.97
2022-09-24T20:13:53.224Z,7.90
2022-09-24T20:16:26.247Z,8.00
2022-09-24T20:18:57.384Z,8.67
2022-09-24T20:21:27.497Z,9.07
2022-09-24T20:23:57.535Z,9.37
2022-09-24T20:26:42.805Z,8.43
2022-09-24T20:29:12.229Z,9.20
2022-09-24T20:31:42.125Z,8.80
2022-09-24T20:34:10.275Z,9.03
2022-09-24T20:36:38.092Z,9.93
2022-09-24T20:39:06.755Z,8.10
2022-09-24T20:41:34.096Z,7.83
2022-09-24T20:44:01.626Z,7.40
2022-09-24T20:46:29.581Z,6.90
2022-09-24T20:48:58.373Z,6.23
2022-09-24T20:51:26.269Z,6.30
2022-09-24T20:53:54.282Z,6.83
2022-09-24T20:56:23.045Z,8.07
2022-09-24T20:58:51.160Z,7.23
2022-09-24T21:01:18.638Z,7.03
2022-09-24T21:03:49.893Z,7.20
2022-09-24T21:06:18.126Z,7.30
2022-09-24T21:08:46.752Z,7.63
2022-09-24T21:11:15.965Z,7.50
2022-09-24T21:13:45.650Z,7.23
2022-09-24T21:16:13.047Z,7.33
2022-09-24T21:18:41.167Z,6.90
2022-09-24T21:21:11.165Z,6.20
2022-09-24T21:23:39.727Z,6.10
2022-09-24T21:26:10.990Z,5.97
2022-09-24T21:28:38.666Z,6.10
2022-09-24T21:31:08.212Z,5.63
2022-09-24T21:33:36.097Z,6.07
2022-09-24T21:36:04.731Z,5.40
2022-09-24T21:38:32.159Z,6.50
2022-09-24T21:41:01.222Z,6.50
2022-09-24T21:43:32.446Z,6.63
2022-09-24T21:46:02.796Z,6.93
2022-09-24T21:48:32.006Z,6.10
2022-09-24T21:51:03.113Z,6.20
2022-09-24T21:53:30.865Z,5.60
2022-09-24T21:55:58.417Z,5.20
2022-09-24T21:58:26.070Z,5.20
2022-09-24T22:00:53.550Z,6.00
2022-09-24T22:03:21.396Z,5.53
2022-09-24T22:05:50.357Z,5.40
2022-09-24T22:08:21.200Z,5.47
2022-09-24T22:10:49.742Z,5.47
2022-09-24T22:13:17.261Z,5.80
2022-09-24T22:15:45.561Z,5.30
2022-09-24T22:18:12.979Z,5.37
2022-09-24T22:20:42.472Z,4.90
2022-09-24T22:23:11.228Z,5.13
2022-09-24T22:25:38.651Z,5.13
2022-09-24T22:28:06.037Z,5.30
2022-09-24T22:30:33.516Z,5.20
2022-09-24T22:33:00.893Z,5.17
2022-09-24T22:35:45.808Z,5.30
2022-09-24T22:38:15.678Z,5.53
2022-09-24T22:40:43.372Z,5.10
2022-09-24T22:43:10.715Z,4.80
2022-09-24T22:45:38.247Z,6.03
2022-09-24T22:48:05.592Z,5.50
2022-09-24T22:50:32.915Z,5.90
2022-09-24T22:53:00.620Z,5.40
2022-09-24T22:55:29.354Z,5.47
2022-09-24T22:57:56.744Z,5.67
2022-09-24T23:00:24.132Z,5.93
2022-09-24T23:02:51.459Z,6.23
2022-09-24T23:05:18.852Z,6.03
2022-09-24T23:07:46.237Z,5.97
2022-09-24T23:10:13.668Z,5.50
2022-09-24T23:12:42.301Z,5.43
2022-09-24T23:15:10.104Z,5.17
2022-09-24T23:17:38.210Z,5.30
2022-09-24T23:20:06.390Z,5.40
2022-09-24T23:22:33.882Z,5.17
2022-09-24T23:25:01.270Z,5.47
2022-09-24T23:27:28.600Z,5.57
2022-09-24T23:29:57.520Z,5.90
2022-09-24T23:32:24.835Z,6.43
2022-09-24T23:34:52.171Z,5.60
2022-09-24T23:37:19.519Z,5.77
2022-09-24T23:39:46.897Z,5.20
2022-09-24T23:42:14.373Z,5.07
2022-09-24T23:44:41.836Z,5.60
2022-09-24T23:47:10.484Z,4.90
2022-09-24T23:49:37.831Z,4.50
2022-09-24T23:52:05.785Z,4.07
2022-09-24T23:54:33.120Z,4.40
2022-09-24T23:57:00.447Z,4.20
2022-09-24T23:59:27.780Z,4.43
